createdAt,value
2018-07-07T00:00:34.701Z,99376.58
2018-07-07T00:03:03.898Z,99376.08
2018-07-07T00:05:33.113Z,99379.37
2018-07-07T00:08:02.278Z,99373.41
2018-07-07T00:10:31.469Z,99371.51
2018-07-07T00:13:00.669Z,99370.67
2018-07-07T00:15:29.853Z,99378.03
2018-07-07T00:17:58.976Z,99377.78
2018-07-07T00:20:28.197Z,99372.66
2018-07-07T00:22:57.145Z,99378.91
2018-07-07T00:25:26.449Z,99371.33
2018-07-07T00:27:55.722Z,99363.20
2018-07-07T00:30:25.261Z,99361.84
2018-07-07T00:32:54.230Z,99356.96
2018-07-07T00:35:23.345Z,99360.77
2018-07-07T00:37:52.542Z,99366.22
2018-07-07T00:40:22.025Z,99374.60
2018-07-07T00:42:51.081Z,99369.73
2018-07-07T00:45:20.136Z,99374.09
2018-07-07T00:47:48.841Z,99383.86
2018-07-07T00:50:17.545Z,99379.20
2018-07-07T00:52:46.266Z,99372.14
2018-07-07T00:55:15.424Z,99368.37
2018-07-07T00:57:44.109Z,99364.55
2018-07-07T01:00:12.845Z,99367.03
2018-07-07T01:02:41.645Z,99367.33
2018-07-07T01:05:20.169Z,99370.59
2018-07-07T01:07:49.316Z,99372.25
2018-07-07T01:10:18.601Z,99375.81
2018-07-07T01:12:47.900Z,99369.56
2018-07-07T01:15:17.105Z,99368.75
2018-07-07T01:17:46.284Z,99370.92
2018-07-07T01:20:15.610Z,99373.31
2018-07-07T01:22:44.782Z,99364.09
2018-07-07T01:25:13.982Z,99367.37
2018-07-07T01:27:43.265Z,99362.45
2018-07-07T01:30:12.465Z,99364.92
2018-07-07T01:32:41.689Z,99363.57
2018-07-07T01:35:10.961Z,99369.02
2018-07-07T01:37:40.188Z,99367.64
2018-07-07T01:40:09.377Z,99367.07
2018-07-07T01:42:38.708Z,99359.74
2018-07-07T01:45:07.799Z,99359.71
2018-07-07T01:47:36.981Z,99356.22
2018-07-07T01:50:05.982Z,99349.48
2018-07-07T01:52:35.162Z,99361.69
2018-07-07T01:55:04.357Z,99360.63
2018-07-07T01:57:33.677Z,99364.99
2018-07-07T02:00:02.852Z,99362.83
2018-07-07T02:02:32.021Z,99363.09
2018-07-07T02:05:01.138Z,99360.08
2018-07-07T02:07:30.618Z,99359.79
2018-07-07T02:09:59.769Z,99356.29
2018-07-07T02:12:29.042Z,99357.09
2018-07-07T02:14:58.277Z,99358.19
2018-07-07T02:17:27.341Z,99354.66
2018-07-07T02:19:56.539Z,99353.08
2018-07-07T02:22:25.837Z,99353.36
2018-07-07T02:24:55.139Z,99354.67
2018-07-07T02:27:24.989Z,99362.54
2018-07-07T02:29:54.625Z,99361.42
2018-07-07T02:32:23.761Z,99358.47
2018-07-07T02:34:52.999Z,99364.20
2018-07-07T02:37:22.257Z,99362.58
2018-07-07T02:39:51.589Z,99365.31
2018-07-07T02:42:20.753Z,99364.49
2018-07-07T02:44:49.768Z,99365.31
2018-07-07T02:47:19.054Z,99367.48
2018-07-07T02:49:48.354Z,99368.04
2018-07-07T02:52:17.579Z,99369.39
2018-07-07T02:54:46.655Z,99375.34
2018-07-07T02:57:15.855Z,99373.17
2018-07-07T02:59:45.039Z,99377.78
2018-07-07T03:02:14.351Z,99377.20
2018-07-07T03:04:43.553Z,99372.05
2018-07-07T03:07:12.734Z,99370.93
2018-07-07T03:09:41.932Z,99365.25
2018-07-07T03:12:11.136Z,99368.52
2018-07-07T03:14:40.331Z,99376.41
2018-07-07T03:17:09.526Z,99372.08
2018-07-07T03:19:38.742Z,99377.22
2018-07-07T03:22:08.065Z,99371.52
2018-07-07T03:24:37.238Z,99372.56
2018-07-07T03:27:06.402Z,99376.63
2018-07-07T03:29:35.705Z,99371.45
2018-07-07T03:32:04.913Z,99373.03
2018-07-07T03:34:34.129Z,99370.04
2018-07-07T03:37:02.827Z,99374.84
2018-07-07T03:39:31.556Z,99376.85
2018-07-07T03:42:00.274Z,99371.95
2018-07-07T03:44:28.985Z,99372.36
2018-07-07T03:46:57.694Z,99372.98
2018-07-07T03:49:26.442Z,99375.28
2018-07-07T03:51:55.216Z,99373.38
2018-07-07T03:54:23.935Z,99374.21
2018-07-07T03:56:52.638Z,99375.14
2018-07-07T03:59:21.329Z,99364.15
2018-07-07T04:01:50.074Z,99366.72
2018-07-07T04:04:18.828Z,99365.88
2018-07-07T04:06:47.531Z,99367.34
2018-07-07T04:09:16.245Z,99369.95
2018-07-07T04:11:45.041Z,99366.94
2018-07-07T04:14:13.759Z,99365.77
2018-07-07T04:16:42.525Z,99361.22
2018-07-07T04:19:11.226Z,99357.89
2018-07-07T04:21:39.959Z,99358.08
2018-07-07T04:24:08.693Z,99361.62
2018-07-07T04:26:37.385Z,99364.87
2018-07-07T04:29:06.071Z,99375.33
2018-07-07T04:31:34.902Z,99371.50
2018-07-07T04:34:03.782Z,99370.20
2018-07-07T04:36:32.518Z,99371.28
2018-07-07T04:39:01.205Z,99366.37
2018-07-07T04:41:29.941Z,99366.17
2018-07-07T04:43:58.923Z,99360.66
2018-07-07T04:46:28.079Z,99358.83
2018-07-07T04:48:57.390Z,99361.87
2018-07-07T04:51:26.565Z,99360.62
2018-07-07T04:53:55.656Z,99357.88
2018-07-07T04:56:24.864Z,99355.95
2018-07-07T04:58:54.090Z,99360.58
2018-07-07T05:01:23.257Z,99353.52
2018-07-07T05:03:52.309Z,99354.09
2018-07-07T05:06:21.233Z,99352.27
2018-07-07T05:08:50.341Z,99358.38
2018-07-07T05:11:19.402Z,99363.03
2018-07-07T05:13:48.533Z,99360.56
2018-07-07T05:16:17.730Z,99360.88
2018-07-07T05:18:46.992Z,99361.12
2018-07-07T05:21:15.687Z,99361.77
2018-07-07T05:23:44.689Z,99367.44
2018-07-07T05:26:13.708Z,99358.52
2018-07-07T05:28:42.897Z,99363.05
2018-07-07T05:31:12.133Z,99355.41
2018-07-07T05:33:41.109Z,99357.46
2018-07-07T05:36:10.180Z,99354.72
2018-07-07T05:38:39.316Z,99358.05
2018-07-07T05:41:08.582Z,99358.55
2018-07-07T05:43:37.709Z,99361.86
2018-07-07T05:46:06.773Z,99359.16
2018-07-07T05:48:36.076Z,99359.34
2018-07-07T05:51:05.168Z,99363.30
2018-07-07T05:53:34.286Z,99358.13
2018-07-07T05:56:03.512Z,99367.02
2018-07-07T05:58:32.606Z,99359.59
2018-07-07T06:01:01.584Z,99355.70
2018-07-07T06:03:30.574Z,99356.62
2018-07-07T06:05:59.540Z,99361.95
2018-07-07T06:08:29.195Z,99341.97
2018-07-07T06:10:58.179Z,99336.45
2018-07-07T06:13:27.353Z,99341.16
2018-07-07T06:15:56.538Z,99338.75
2018-07-07T06:18:25.904Z,99336.56
2018-07-07T06:20:55.180Z,99335.13
2018-07-07T06:23:24.384Z,99339.69
2018-07-07T06:25:53.370Z,99330.41
2018-07-07T06:28:22.455Z,99333.62
2018-07-07T06:30:51.237Z,99332.21
2018-07-07T06:33:19.953Z,99336.41
2018-07-07T06:35:48.993Z,99329.78
2018-07-07T06:38:18.401Z,99331.39
2018-07-07T06:40:47.588Z,99337.45
2018-07-07T06:43:16.638Z,99336.76
2018-07-07T06:45:45.865Z,99337.27
2018-07-07T06:48:14.988Z,99325.91
2018-07-07T06:50:44.221Z,99320.57
2018-07-07T06:53:13.376Z,99320.39
2018-07-07T06:55:42.633Z,99318.07
2018-07-07T06:58:11.782Z,99313.53
2018-07-07T07:00:40.981Z,99318.47
2018-07-07T07:03:10.198Z,99318.37
2018-07-07T07:05:39.240Z,99320.16
2018-07-07T07:08:08.543Z,99318.75
2018-07-07T07:10:37.569Z,99321.94
2018-07-07T07:13:06.825Z,99312.27
2018-07-07T07:15:35.878Z,99314.37
2018-07-07T07:18:04.959Z,99308.63
2018-07-07T07:20:34.082Z,99306.84
2018-07-07T07:23:03.335Z,99310.59
2018-07-07T07:25:32.371Z,99312.93
2018-07-07T07:28:01.488Z,99304.91
2018-07-07T07:30:30.650Z,99305.91
2018-07-07T07:32:59.357Z,99304.41
2018-07-07T07:35:28.093Z,99304.28
2018-07-07T07:37:56.837Z,99300.28
2018-07-07T07:40:25.614Z,99293.48
2018-07-07T07:42:54.334Z,99297.89
2018-07-07T07:45:23.034Z,99291.89
2018-07-07T07:47:51.732Z,99299.70
2018-07-07T07:50:20.470Z,99304.30
2018-07-07T07:52:49.268Z,99302.70
2018-07-07T07:55:17.958Z,99300.62
2018-07-07T07:57:46.661Z,99300.13
2018-07-07T08:00:15.374Z,99307.03
2018-07-07T08:02:44.057Z,99300.86
2018-07-07T08:05:12.793Z,99301.86
2018-07-07T08:07:41.490Z,99291.59
2018-07-07T08:10:10.169Z,99289.92
2018-07-07T08:12:39.032Z,99283.11
2018-07-07T08:15:07.738Z,99287.03
2018-07-07T08:17:36.465Z,99294.09
2018-07-07T08:20:05.294Z,99288.97
2018-07-07T08:22:34.030Z,99288.95
2018-07-07T08:25:02.722Z,99294.31
2018-07-07T08:27:31.413Z,99293.73
2018-07-07T08:30:00.165Z,99290.04
2018-07-07T08:32:28.887Z,99286.70
2018-07-07T08:34:57.583Z,99290.70
2018-07-07T08:37:26.278Z,99285.16
2018-07-07T08:39:55.005Z,99282.56
2018-07-07T08:42:23.753Z,99284.80
2018-07-07T08:44:52.458Z,99287.26
2018-07-07T08:47:21.762Z,99287.36
2018-07-07T08:49:51.277Z,99291.16
2018-07-07T08:52:20.470Z,99284.30
2018-07-07T08:54:49.421Z,99281.91
2018-07-07T08:57:18.454Z,99279.77
2018-07-07T08:59:47.437Z,99281.48
2018-07-07T09:02:16.761Z,99274.53
2018-07-07T09:04:46.838Z,99279.32
2018-07-07T09:07:15.962Z,99279.21
2018-07-07T09:09:45.185Z,99275.56
2018-07-07T09:12:14.309Z,99274.48
2018-07-07T09:14:43.047Z,99271.97
2018-07-07T09:17:11.995Z,99259.76
2018-07-07T09:19:41.250Z,99266.83
2018-07-07T09:22:10.757Z,99258.28
2018-07-07T09:24:40.125Z,99258.05
2018-07-07T09:27:09.409Z,99243.67
2018-07-07T09:29:38.602Z,99256.27
2018-07-07T09:32:07.742Z,99249.88
2018-07-07T09:34:36.969Z,99244.45
2018-07-07T09:37:05.926Z,99256.26
2018-07-07T09:39:36.026Z,99261.36
2018-07-07T09:42:05.162Z,99253.59
2018-07-07T09:44:34.244Z,99248.20
2018-07-07T09:47:03.269Z,99247.30
2018-07-07T09:49:32.434Z,99247.94
2018-07-07T09:52:01.173Z,99247.41
2018-07-07T09:54:29.916Z,99241.27
2018-07-07T09:56:58.741Z,99235.14
2018-07-07T09:59:27.614Z,99222.94
2018-07-07T10:01:56.945Z,99222.13
2018-07-07T10:04:25.674Z,99221.00
2018-07-07T10:06:54.518Z,99221.53
2018-07-07T10:09:23.281Z,99213.82
2018-07-07T10:11:52.211Z,99217.45
2018-07-07T10:14:20.954Z,99214.77
2018-07-07T10:16:49.689Z,99207.41
2018-07-07T10:19:18.503Z,99213.72
2018-07-07T10:21:47.201Z,99213.00
2018-07-07T10:24:16.076Z,99208.87
2018-07-07T10:26:45.169Z,99211.88
2018-07-07T10:29:14.098Z,99207.98
2018-07-07T10:31:42.998Z,99197.65
2018-07-07T10:34:11.729Z,99196.76
2018-07-07T10:36:40.486Z,99192.36
2018-07-07T10:39:09.203Z,99188.09
2018-07-07T10:41:38.705Z,99189.05
2018-07-07T10:44:07.617Z,99191.81
2018-07-07T10:46:36.680Z,99190.51
2018-07-07T10:49:05.793Z,99186.68
2018-07-07T10:51:34.517Z,99183.62
2018-07-07T10:54:03.209Z,99180.33
2018-07-07T10:56:31.914Z,99185.19
2018-07-07T10:59:00.661Z,99183.77
2018-07-07T11:01:29.369Z,99174.55
2018-07-07T11:03:58.338Z,99177.84
2018-07-07T11:06:27.538Z,99177.33
2018-07-07T11:08:56.534Z,99176.30
2018-07-07T11:11:25.682Z,99173.09
2018-07-07T11:13:54.925Z,99163.65
2018-07-07T11:16:24.137Z,99162.33
2018-07-07T11:18:53.325Z,99160.41
2018-07-07T11:21:22.522Z,99159.01
2018-07-07T11:23:51.590Z,99158.55
2018-07-07T11:26:20.530Z,99159.00
2018-07-07T11:28:49.721Z,99156.66
2018-07-07T11:31:18.413Z,99167.59
2018-07-07T11:33:47.128Z,99169.00
2018-07-07T11:36:15.869Z,99164.08
2018-07-07T11:38:44.677Z,99168.66
2018-07-07T11:41:16.722Z,99167.44
2018-07-07T11:43:45.433Z,99155.63
2018-07-07T11:46:14.603Z,99163.19
2018-07-07T11:48:43.364Z,99165.80
2018-07-07T11:51:12.231Z,99161.39
2018-07-07T11:53:40.966Z,99161.41
2018-07-07T11:56:09.678Z,99154.48
2018-07-07T11:58:38.593Z,99149.32
2018-07-07T12:01:07.399Z,99152.16
2018-07-07T12:03:36.671Z,99153.48
2018-07-07T12:06:05.942Z,99154.59
2018-07-07T12:08:34.969Z,99157.89
2018-07-07T12:11:04.094Z,99148.02
2018-07-07T12:13:33.083Z,99143.27
2018-07-07T12:16:01.790Z,99141.27
2018-07-07T12:18:30.805Z,99135.92
2018-07-07T12:21:00.246Z,99133.14
2018-07-07T12:23:29.577Z,99128.10
2018-07-07T12:25:58.622Z,99134.02
2018-07-07T12:28:27.432Z,99131.78
2018-07-07T12:30:56.517Z,99134.92
2018-07-07T12:33:25.577Z,99148.67
2018-07-07T12:35:54.781Z,99163.53
2018-07-07T12:38:23.569Z,99171.61
2018-07-07T12:40:53.000Z,99178.35
2018-07-07T12:43:22.096Z,99169.53
2018-07-07T12:45:51.269Z,99182.39
2018-07-07T12:48:20.582Z,99179.48
2018-07-07T12:50:49.768Z,99175.36
2018-07-07T12:53:18.862Z,99176.88
2018-07-07T12:55:48.065Z,99178.16
2018-07-07T12:58:17.055Z,99184.72
2018-07-07T13:00:46.184Z,99181.56
2018-07-07T13:03:15.273Z,99184.89
2018-07-07T13:05:44.247Z,99176.78
2018-07-07T13:08:13.442Z,99181.39
2018-07-07T13:10:42.628Z,99172.94
2018-07-07T13:13:12.063Z,99171.45
2018-07-07T13:15:41.175Z,99174.39
2018-07-07T13:18:10.355Z,99182.59
2018-07-07T13:20:39.551Z,99184.66
2018-07-07T13:23:08.481Z,99180.77
2018-07-07T13:25:37.660Z,99185.97
2018-07-07T13:28:06.937Z,99196.25
2018-07-07T13:30:36.129Z,99194.40
2018-07-07T13:33:05.365Z,99194.50
2018-07-07T13:35:34.636Z,99194.54
2018-07-07T13:38:03.890Z,99184.19
2018-07-07T13:40:33.011Z,99184.11
2018-07-07T13:43:02.221Z,99185.27
2018-07-07T13:45:31.436Z,99193.83
2018-07-07T13:48:00.509Z,99214.65
2018-07-07T13:50:29.629Z,99236.44
2018-07-07T13:52:58.990Z,99247.05
2018-07-07T13:55:28.111Z,99265.88
2018-07-07T13:57:57.292Z,99280.97
2018-07-07T14:00:26.505Z,99307.45
2018-07-07T14:02:55.522Z,99324.05
2018-07-07T14:05:24.797Z,99342.80
2018-07-07T14:07:54.094Z,99355.36
2018-07-07T14:10:23.153Z,99381.98
2018-07-07T14:12:52.199Z,99402.35
2018-07-07T14:15:21.186Z,99415.58
2018-07-07T14:17:50.318Z,99410.23
2018-07-07T14:20:19.515Z,99398.17
2018-07-07T14:22:48.707Z,99394.17
2018-07-07T14:25:17.889Z,99402.86
2018-07-07T14:27:46.986Z,99406.57
2018-07-07T14:30:16.091Z,99409.88
2018-07-07T14:32:45.182Z,99407.80
2018-07-07T14:35:14.360Z,99416.89
2018-07-07T14:37:43.919Z,99417.25
2018-07-07T14:40:12.965Z,99418.86
2018-07-07T14:42:50.359Z,99423.16
2018-07-07T14:45:22.196Z,99435.81
2018-07-07T14:47:52.423Z,99434.98
2018-07-07T14:50:21.858Z,99450.45
2018-07-07T14:52:51.076Z,99449.48
2018-07-07T14:55:21.634Z,99454.92
2018-07-07T14:57:50.681Z,99458.70
2018-07-07T15:00:21.257Z,99458.75
2018-07-07T15:02:51.562Z,99453.30
2018-07-07T15:05:20.636Z,99449.39
2018-07-07T15:07:50.001Z,99452.56
2018-07-07T15:10:19.370Z,99458.83
2018-07-07T15:12:49.374Z,99453.42
2018-07-07T15:15:18.562Z,99453.16
2018-07-07T15:17:47.991Z,99443.38
2018-07-07T15:20:17.794Z,99428.02
2018-07-07T15:22:47.042Z,99419.04
2018-07-07T15:25:16.349Z,99419.00
2018-07-07T15:27:45.566Z,99420.09
2018-07-07T15:30:14.745Z,99435.78
2018-07-07T15:32:44.022Z,99437.86
2018-07-07T15:35:13.256Z,99430.63
2018-07-07T15:37:42.447Z,99433.87
2018-07-07T15:40:11.541Z,99423.72
2018-07-07T15:42:40.678Z,99417.10
2018-07-07T15:45:09.951Z,99418.66
2018-07-07T15:47:39.126Z,99417.50
2018-07-07T15:50:08.317Z,99411.05
2018-07-07T15:52:37.706Z,99402.30
2018-07-07T15:55:06.826Z,99400.13
2018-07-07T15:57:35.898Z,99399.09
2018-07-07T16:00:05.709Z,99397.47
2018-07-07T16:02:34.837Z,99401.06
2018-07-07T16:05:04.047Z,99400.30
2018-07-07T16:07:33.145Z,99401.22
2018-07-07T16:10:02.553Z,99402.13
2018-07-07T16:12:31.758Z,99401.13
2018-07-07T16:15:00.945Z,99401.78
2018-07-07T16:17:30.229Z,99409.20
2018-07-07T16:19:59.303Z,99406.03
2018-07-07T16:22:28.729Z,99403.16
2018-07-07T16:24:57.945Z,99410.30
2018-07-07T16:27:27.061Z,99423.15
2018-07-07T16:29:56.390Z,99422.05
2018-07-07T16:32:25.594Z,99425.95
2018-07-07T16:34:54.761Z,99432.76
2018-07-07T16:37:24.124Z,99427.53
2018-07-07T16:39:53.358Z,99432.13
2018-07-07T16:42:23.225Z,99436.16
2018-07-07T16:44:52.524Z,99438.55
2018-07-07T16:47:21.987Z,99435.87
2018-07-07T16:49:50.958Z,99432.34
2018-07-07T16:52:20.233Z,99427.99
2018-07-07T16:54:49.756Z,99426.00
2018-07-07T16:57:19.045Z,99428.16
2018-07-07T16:59:48.551Z,99419.98
2018-07-07T17:02:18.471Z,99420.52
2018-07-07T17:04:47.452Z,99423.27
2018-07-07T17:07:16.610Z,99420.25
2018-07-07T17:09:45.362Z,99416.48
2018-07-07T17:12:14.641Z,99406.38
2018-07-07T17:14:43.849Z,99402.81
2018-07-07T17:17:13.044Z,99394.94
2018-07-07T17:19:42.225Z,99391.35
2018-07-07T17:22:11.468Z,99384.48
2018-07-07T17:24:40.731Z,99386.88
2018-07-07T17:27:10.032Z,99383.59
2018-07-07T17:29:39.257Z,99381.61
2018-07-07T17:32:08.820Z,99381.52
2018-07-07T17:34:38.144Z,99382.27
2018-07-07T17:37:07.425Z,99388.52
2018-07-07T17:39:36.645Z,99384.73
2018-07-07T17:42:05.790Z,99386.34
2018-07-07T17:44:34.969Z,99382.25
2018-07-07T17:47:04.231Z,99379.53
2018-07-07T17:49:33.602Z,99380.28
2018-07-07T17:52:02.822Z,99378.31
2018-07-07T17:54:32.049Z,99382.15
2018-07-07T17:57:01.434Z,99381.09
2018-07-07T17:59:30.433Z,99380.55
2018-07-07T18:01:59.525Z,99382.00
2018-07-07T18:04:28.739Z,99380.89
2018-07-07T18:06:58.010Z,99378.44
2018-07-07T18:09:27.249Z,99372.53
2018-07-07T18:11:56.360Z,99367.95
2018-07-07T18:14:25.502Z,99368.00
2018-07-07T18:16:54.816Z,99366.38
2018-07-07T18:19:24.022Z,99358.27
2018-07-07T18:21:53.197Z,99355.30
2018-07-07T18:24:22.505Z,99353.47
2018-07-07T18:26:51.718Z,99358.17
2018-07-07T18:29:20.809Z,99363.06
2018-07-07T18:31:49.928Z,99361.71
2018-07-07T18:34:19.201Z,99364.98
2018-07-07T18:36:48.397Z,99362.80
2018-07-07T18:39:17.669Z,99361.47
2018-07-07T18:41:47.022Z,99367.47
2018-07-07T18:44:16.382Z,99362.27
2018-07-07T18:46:45.138Z,99375.33
2018-07-07T18:49:14.291Z,99380.52
2018-07-07T18:51:43.778Z,99380.72
2018-07-07T18:54:13.416Z,99382.88
2018-07-07T18:56:42.188Z,99382.12
2018-07-07T18:59:11.463Z,99387.59
2018-07-07T19:01:40.782Z,99383.25
2018-07-07T19:04:10.045Z,99378.85
2018-07-07T19:06:39.737Z,99379.35
2018-07-07T19:09:08.832Z,99380.15
2018-07-07T19:11:38.013Z,99383.70
2018-07-07T19:14:07.090Z,99383.95
2018-07-07T19:16:36.013Z,99383.13
2018-07-07T19:19:04.966Z,99387.82
2018-07-07T19:21:38.695Z,99384.30
2018-07-07T19:24:12.600Z,99379.81
2018-07-07T19:26:46.638Z,99332.56
2018-07-07T19:29:15.480Z,99385.69
2018-07-07T19:31:49.346Z,99379.61
2018-07-07T19:34:23.335Z,99389.08
2018-07-07T19:36:57.206Z,99389.55
2018-07-07T19:39:26.174Z,99392.53
2018-07-07T19:41:54.992Z,99387.88
2018-07-07T19:44:24.299Z,99381.63
2018-07-07T19:46:53.150Z,99384.91
2018-07-07T19:49:22.028Z,99378.19
2018-07-07T19:51:50.761Z,99387.72
2018-07-07T19:54:19.525Z,99387.47
2018-07-07T19:56:48.259Z,99380.97
2018-07-07T19:59:17.210Z,99387.05
2018-07-07T20:01:45.981Z,99390.33
2018-07-07T20:04:14.715Z,99391.69
2018-07-07T20:06:43.474Z,99391.38
2018-07-07T20:09:12.218Z,99392.19
2018-07-07T20:11:41.090Z,99381.82
2018-07-07T20:14:09.814Z,99391.04
2018-07-07T20:16:49.570Z,99390.58
2018-07-07T20:19:21.334Z,99390.28
2018-07-07T20:22:07.040Z,99389.27
2018-07-07T20:24:39.547Z,99391.47
2018-07-07T20:27:14.179Z,99391.14
2018-07-07T20:29:42.939Z,99394.41
2018-07-07T20:32:16.737Z,99396.63
2018-07-07T20:34:45.520Z,99397.47
2018-07-07T20:37:14.274Z,99401.00
2018-07-07T20:39:43.238Z,99403.20
2018-07-07T20:42:12.078Z,99410.30
2018-07-07T20:44:40.893Z,99415.45
2018-07-07T20:47:10.330Z,99415.75
2018-07-07T20:49:39.081Z,99416.59
2018-07-07T20:52:07.826Z,99420.67
2018-07-07T20:54:36.565Z,99420.75
2018-07-07T20:57:05.358Z,99425.38
2018-07-07T20:59:34.106Z,99427.30
2018-07-07T21:02:03.036Z,99432.45
2018-07-07T21:04:31.910Z,99431.38
2018-07-07T21:07:00.663Z,99434.02
2018-07-07T21:09:29.511Z,99433.22
2018-07-07T21:11:58.238Z,99438.66
2018-07-07T21:14:27.026Z,99432.11
2018-07-07T21:16:55.753Z,99435.64
2018-07-07T21:19:24.477Z,99430.71
2018-07-07T21:21:53.391Z,99431.26
2018-07-07T21:24:24.059Z,99427.98
2018-07-07T21:26:52.867Z,99428.76
2018-07-07T21:29:21.684Z,99431.73
2018-07-07T21:31:50.426Z,99426.30
2018-07-07T21:34:19.201Z,99427.66
2018-07-07T21:36:47.953Z,99429.48
2018-07-07T21:39:16.670Z,99436.77
2018-07-07T21:41:45.449Z,99432.69
2018-07-07T21:44:14.189Z,99432.98
2018-07-07T21:46:43.177Z,99429.96
2018-07-07T21:49:12.069Z,99428.89
2018-07-07T21:51:40.968Z,99427.20
2018-07-07T21:54:10.077Z,99434.84
2018-07-07T21:56:39.421Z,99432.64
2018-07-07T21:59:13.237Z,99426.09
2018-07-07T22:01:54.734Z,99432.55
2018-07-07T22:04:29.492Z,99433.70
2018-07-07T22:07:03.529Z,99439.81
2018-07-07T22:09:33.416Z,99434.38
2018-07-07T22:12:02.183Z,99439.82
2018-07-07T22:14:31.291Z,99437.43
2018-07-07T22:17:00.055Z,99437.22
2018-07-07T22:19:28.802Z,99441.05
2018-07-07T22:22:00.570Z,99439.94
2018-07-07T22:24:29.356Z,99439.94
2018-07-07T22:27:00.935Z,99447.77
2018-07-07T22:29:29.890Z,99446.45
2018-07-07T22:31:59.883Z,99436.16
2018-07-07T22:34:36.843Z,99439.20
2018-07-07T22:37:05.797Z,99435.89
2018-07-07T22:39:40.587Z,99444.35
2018-07-07T22:42:11.578Z,99444.91
2018-07-07T22:44:41.344Z,99438.36
2018-07-07T22:47:10.168Z,99439.42
2018-07-07T22:49:38.882Z,99442.14
2018-07-07T22:52:08.709Z,99442.99
2018-07-07T22:54:37.434Z,99441.92
2018-07-07T22:57:06.170Z,99440.23
2018-07-07T22:59:34.939Z,99439.69
2018-07-07T23:02:03.826Z,99435.89
2018-07-07T23:04:32.703Z,99438.36
2018-07-07T23:07:01.498Z,99434.53
2018-07-07T23:09:30.229Z,99437.73
2018-07-07T23:11:58.987Z,99433.35
2018-07-07T23:14:27.783Z,99441.48
2018-07-07T23:17:04.832Z,99440.67
2018-07-07T23:19:33.553Z,99443.65
2018-07-07T23:22:02.294Z,99439.02
2018-07-07T23:24:31.034Z,99446.16
2018-07-07T23:26:59.787Z,99440.27
2018-07-07T23:29:28.530Z,99438.69
2018-07-07T23:31:57.249Z,99439.46
2018-07-07T23:34:25.965Z,99446.27
2018-07-07T23:36:54.901Z,99439.46
2018-07-07T23:39:23.627Z,99444.94
2018-07-07T23:41:52.394Z,99444.68
2018-07-07T23:44:21.114Z,99446.37
2018-07-07T23:46:49.859Z,99444.20
2018-07-07T23:49:18.655Z,99443.13
2018-07-07T23:51:47.374Z,99441.81
2018-07-07T23:54:16.154Z,99438.34
2018-07-07T23:56:45.023Z,99438.38
2018-07-07T23:59:13.753Z,99438.38
